Time;durP1;ratioP1;P1;durP2;ratioP2;P2;SDS_P1;SDS_P2;PMS_P1;PMS_P2;Temp;Humidity;BMP_temperature;BMP_pressure;BME280_temperature;BME280_humidity;BME280_pressure;Samples;Min_cycle;Max_cycle;Signal;HPM_P1;HPM_P2
2022/03/26 05:11:15;;;;;;;;;;;27.70;20.70;;;;;;5111171;27;20381;-90
2022/03/26 05:13:41;;;;;;;;;;;4.70;78.30;;;;;;5111109;28;19995;-90
2022/03/26 05:16:07;;;;;;;;;;;4.70;77.80;;;;;;5111295;28;20007;-89
2022/03/26 05:18:33;;;;;;;;;;;4.70;77.70;;;;;;5111044;28;19994;-89
2022/03/26 05:20:59;;;;;;;;;;;4.70;77.40;;;;;;5110937;28;19911;-90
2022/03/26 05:23:25;;;;;;;;;;;4.70;77.40;;;;;;5110917;28;19965;-89
2022/03/26 05:25:51;;;;;;;;;;;4.90;77.60;;;;;;5110895;28;20325;-90
2022/03/26 05:28:16;;;;;;;;;;;4.80;77.80;;;;;;5110498;28;19912;-90
2022/03/26 05:30:42;;;;;;;;;;;4.80;79.80;;;;;;5110572;28;19915;-89
2022/03/26 05:33:08;;;;;;;;;;;4.70;81.00;;;;;;5110706;28;19968;-90
2022/03/26 07:40:23;;;;;;;;;;;4.50;82.20;;;;;;5115201;27;19919;-87
2022/03/26 07:46:21;;;;;;;;;;;11.00;64.90;;;;;;5069869;28;19923;-88
2022/03/26 07:48:48;;;;;;;;;;;11.50;65.70;;;;;;5072273;28;19920;-87
2022/03/26 07:51:13;;;;;;;;;;;11.70;62.60;;;;;;5066398;28;19913;-88
2022/03/26 07:53:39;;;;;;;;;;;12.00;60.80;;;;;;5074488;28;19958;-88
2022/03/26 07:57:34;;;;;;;;;;;12.30;59.50;;;;;;5107960;27;20052;-87
2022/03/26 08:01:00;;;;;;;;;;;12.70;57.20;;;;;;5107107;27;20378;-88
2022/03/26 08:03:26;;;;;;;;;;;13.00;55.10;;;;;;5101611;28;19918;-88
2022/03/26 08:05:51;;;;;;;;;;;13.30;52.80;;;;;;5098930;28;20358;-88
2022/03/26 08:08:17;;;;;;;;;;;13.40;52.30;;;;;;5090753;28;20325;-88
2022/03/26 08:10:42;;;;;;;;;;;13.60;52.10;;;;;;5082638;28;19913;-88
2022/03/26 08:13:08;;;;;;;;;;;13.80;51.80;;;;;;5088455;28;19919;-88
2022/03/26 08:15:34;;;;;;;;;;;14.10;50.20;;;;;;5085972;28;19912;-88
2022/03/26 08:18:02;;;;;;;;;;;14.30;48.00;;;;;;5089238;28;19919;-88
2022/03/26 08:20:28;;;;;;;;;;;14.40;48.50;;;;;;5084375;28;19935;-87
2022/03/26 08:22:54;;;;;;;;;;;14.50;50.00;;;;;;5085998;28;19912;-88
2022/03/26 08:28:05;;;;;;;;;;;14.80;49.30;;;;;;5088553;28;19926;-88
2022/03/26 08:30:30;;;;;;;;;;;14.90;46.90;;;;;;5081133;28;19975;-88
2022/03/26 08:32:56;;;;;;;;;;;15.10;45.40;;;;;;5085931;28;19952;-88
2022/03/26 08:35:22;;;;;;;;;;;15.30;44.90;;;;;;5083158;28;19919;-88
2022/03/26 08:37:48;;;;;;;;;;;15.40;48.20;;;;;;5082735;28;19939;-89
2022/03/26 08:40:13;;;;;;;;;;;15.60;48.40;;;;;;5082623;28;20374;-88
2022/03/26 08:42:39;;;;;;;;;;;15.80;47.30;;;;;;5083307;28;19913;-89
2022/03/26 08:45:05;;;;;;;;;;;16.00;48.10;;;;;;5080275;28;19920;-88
2022/03/26 08:47:30;;;;;;;;;;;16.00;45.40;;;;;;5081859;28;19989;-88
2022/03/26 08:49:56;;;;;;;;;;;16.10;43.80;;;;;;5085700;28;20362;-88
2022/03/26 08:52:21;;;;;;;;;;;16.30;43.20;;;;;;5089774;28;19912;-89
2022/03/26 09:05:28;;;;;;;;;;;16.30;42.10;;;;;;5106549;27;19923;-89
2022/03/26 09:07:53;;;;;;;;;;;16.80;36.40;;;;;;5094176;28;19912;-89
2022/03/26 09:10:19;;;;;;;;;;;16.90;36.10;;;;;;5093144;28;20007;-89
2022/03/26 09:12:46;;;;;;;;;;;17.00;38.10;;;;;;5090007;28;19956;-89
2022/03/26 09:15:12;;;;;;;;;;;17.20;35.20;;;;;;5101077;28;20171;-89
2022/03/26 09:17:38;;;;;;;;;;;17.40;34.30;;;;;;5090387;28;19982;-89
2022/03/26 09:20:04;;;;;;;;;;;17.60;34.60;;;;;;5089042;28;20366;-89
2022/03/26 09:22:30;;;;;;;;;;;17.80;34.00;;;;;;5086999;28;19920;-89
2022/03/26 09:24:55;;;;;;;;;;;17.90;32.60;;;;;;5122176;28;19916;-89
2022/03/26 09:27:21;;;;;;;;;;;18.10;32.60;;;;;;5088253;28;19927;-89
2022/03/26 09:29:46;;;;;;;;;;;18.30;32.50;;;;;;5088829;28;20287;-89
2022/03/26 09:32:12;;;;;;;;;;;18.30;31.30;;;;;;5089364;28;19913;-89
2022/03/26 09:34:38;;;;;;;;;;;18.50;31.90;;;;;;5088611;28;20007;-89
2022/03/26 09:40:57;;;;;;;;;;;18.60;30.80;;;;;;5124364;27;20389;-88
2022/03/26 09:43:36;;;;;;;;;;;18.70;31.50;;;;;;5110935;27;19912;-88
2022/03/26 09:49:24;;;;;;;;;;;18.60;29.70;;;;;;5151524;27;19922;-91
2022/03/26 09:51:56;;;;;;;;;;;18.80;33.60;;;;;;5152231;27;19911;-91
2022/03/26 09:54:25;;;;;;;;;;;18.80;32.40;;;;;;5151467;27;19907;-91
2022/03/26 09:56:50;;;;;;;;;;;19.00;32.30;;;;;;5150414;27;19964;-90
2022/03/26 09:59:20;;;;;;;;;;;19.10;32.80;;;;;;5139553;27;19908;-90
2022/03/26 10:01:46;;;;;;;;;;;19.30;31.40;;;;;;5131506;27;19970;-90
2022/03/26 10:04:12;;;;;;;;;;;19.30;31.90;;;;;;5132443;27;20369;-91
2022/03/26 10:06:46;;;;;;;;;;;19.50;30.20;;;;;;5134617;27;19912;-91
2022/03/26 10:09:11;;;;;;;;;;;19.60;29.30;;;;;;5142442;27;19915;-91
2022/03/26 10:11:37;;;;;;;;;;;19.70;30.50;;;;;;5131020;28;20369;-91
2022/03/26 10:14:03;;;;;;;;;;;19.80;33.00;;;;;;5111392;28;19908;-91
2022/03/26 10:16:28;;;;;;;;;;;19.80;31.80;;;;;;5110573;28;19919;-91
2022/03/26 10:18:57;;;;;;;;;;;20.00;33.40;;;;;;5110510;28;20447;-91
2022/03/26 10:21:23;;;;;;;;;;;20.20;32.10;;;;;;5114054;28;19999;-91
2022/03/26 10:23:53;;;;;;;;;;;20.30;29.80;;;;;;5110381;28;19966;-90
2022/03/26 10:26:21;;;;;;;;;;;20.40;29.10;;;;;;5095302;28;20111;-91
2022/03/26 10:28:54;;;;;;;;;;;20.50;29.30;;;;;;5121741;28;20366;-91
2022/03/26 10:34:11;;;;;;;;;;;20.70;29.20;;;;;;5115194;28;20371;-90
2022/03/26 10:36:38;;;;;;;;;;;20.80;30.50;;;;;;5114760;28;19949;-91
2022/03/26 10:39:05;;;;;;;;;;;20.80;27.90;;;;;;5126692;28;19908;-91
2022/03/26 10:41:32;;;;;;;;;;;20.80;27.70;;;;;;5130562;28;20018;-91
2022/03/26 10:44:07;;;;;;;;;;;20.80;27.90;;;;;;5110777;28;20373;-91
2022/03/26 10:46:42;;;;;;;;;;;20.90;28.30;;;;;;5109960;28;19958;-90
2022/03/26 10:49:08;;;;;;;;;;;20.90;28.80;;;;;;5109574;28;19927;-90
2022/03/26 10:51:36;;;;;;;;;;;20.90;28.20;;;;;;5109901;28;19912;-91
2022/03/26 10:54:09;;;;;;;;;;;20.80;28.90;;;;;;5109813;28;19957;-91
2022/03/26 10:56:35;;;;;;;;;;;20.90;28.10;;;;;;5110039;28;19915;-90
2022/03/26 10:59:01;;;;;;;;;;;21.10;29.50;;;;;;5106079;28;19995;-91
2022/03/26 11:01:27;;;;;;;;;;;21.20;30.10;;;;;;5096116;28;19914;-91
2022/03/26 11:03:53;;;;;;;;;;;21.30;27.90;;;;;;5096258;28;19920;-90
2022/03/26 11:06:20;;;;;;;;;;;21.50;27.20;;;;;;5096314;28;19912;-90
2022/03/26 11:13:20;;;;;;;;;;;21.50;27.70;;;;;;5110765;27;19916;-90
2022/03/26 11:21:52;;;;;;;;;;;21.30;29.10;;;;;;5111038;27;19919;-90
2022/03/26 11:24:41;;;;;;;;;;;21.50;31.70;;;;;;5143687;27;19912;-89
2022/03/26 11:27:09;;;;;;;;;;;21.80;30.60;;;;;;5110844;28;20431;-89
2022/03/26 11:29:53;;;;;;;;;;;22.00;28.00;;;;;;5111031;28;19918;-90
2022/03/26 11:34:12;;;;;;;;;;;22.20;29.70;;;;;;5111036;27;19912;-90
2022/03/26 11:36:37;;;;;;;;;;;22.60;29.00;;;;;;5110893;28;19918;-90
2022/03/26 11:39:11;;;;;;;;;;;22.80;28.30;;;;;;5111108;28;19915;-90
2022/03/26 11:50:46;;;;;;;;;;;23.20;26.20;;;;;;5090800;28;20271;-90
2022/03/26 11:53:44;;;;;;;;;;;23.50;26.40;;;;;;5110914;28;20141;-90
2022/03/26 11:56:20;;;;;;;;;;;23.20;24.80;;;;;;5087515;28;19908;-91
2022/03/26 11:58:50;;;;;;;;;;;23.30;25.60;;;;;;5111122;28;19908;-90
2022/03/26 12:01:16;;;;;;;;;;;23.50;25.50;;;;;;5110760;28;19908;-90
2022/03/26 12:09:02;;;;;;;;;;;23.70;26.30;;;;;;5111096;27;19912;-91
2022/03/26 12:11:31;;;;;;;;;;;23.80;25.30;;;;;;5111043;28;19912;-91
2022/03/26 12:14:01;;;;;;;;;;;23.70;27.00;;;;;;5090664;28;20003;-90
2022/03/26 12:16:46;;;;;;;;;;;23.80;25.70;;;;;;5090611;28;20382;-92
2022/03/26 12:19:11;;;;;;;;;;;24.30;26.20;;;;;;5090692;28;19922;-91
2022/03/26 12:21:49;;;;;;;;;;;24.60;25.60;;;;;;5090508;28;19908;-91
2022/03/26 12:24:18;;;;;;;;;;;25.00;27.10;;;;;;5089225;28;19909;-91
2022/03/26 12:26:50;;;;;;;;;;;25.30;25.70;;;;;;5090360;28;20376;-91
2022/03/26 12:29:16;;;;;;;;;;;25.70;23.90;;;;;;5089050;28;20281;-91
2022/03/26 12:31:42;;;;;;;;;;;26.20;23.30;;;;;;5090251;28;19908;-91
2022/03/26 12:34:07;;;;;;;;;;;26.70;21.90;;;;;;5090334;28;20003;-91
2022/03/26 12:36:34;;;;;;;;;;;27.20;20.10;;;;;;5090274;28;19958;-91
2022/03/26 12:39:00;;;;;;;;;;;27.80;19.60;;;;;;5090209;28;20421;-91
2022/03/26 12:41:25;;;;;;;;;;;28.50;19.30;;;;;;5090126;28;19908;-91
2022/03/26 12:43:54;;;;;;;;;;;28.90;19.30;;;;;;5109504;28;19912;-91
2022/03/26 12:46:20;;;;;;;;;;;29.30;19.60;;;;;;5110701;28;19999;-91
2022/03/26 12:48:46;;;;;;;;;;;29.40;18.30;;;;;;5110272;28;20354;-91
2022/03/26 12:51:12;;;;;;;;;;;30.20;18.40;;;;;;5110318;28;19908;-90
2022/03/26 12:53:39;;;;;;;;;;;30.30;18.80;;;;;;5110240;28;19960;-90
2022/03/26 12:56:07;;;;;;;;;;;30.40;19.10;;;;;;5110225;28;19908;-91
2022/03/26 13:01:17;;;;;;;;;;;31.90;17.50;;;;;;5110453;28;19915;-91
2022/03/26 13:03:44;;;;;;;;;;;32.20;17.80;;;;;;5108776;28;19912;-91
2022/03/26 13:06:13;;;;;;;;;;;32.00;16.80;;;;;;5109999;28;19992;-91
2022/03/26 13:08:42;;;;;;;;;;;32.00;17.90;;;;;;5109647;28;19942;-91
2022/03/26 13:11:09;;;;;;;;;;;32.50;16.30;;;;;;5109948;28;19991;-90
2022/03/26 13:13:43;;;;;;;;;;;32.20;16.80;;;;;;5109054;28;19958;-91
2022/03/26 13:16:13;;;;;;;;;;;31.30;16.80;;;;;;5110129;28;19908;-91
2022/03/26 13:18:43;;;;;;;;;;;31.90;17.20;;;;;;5106055;28;19957;-91
2022/03/26 13:21:08;;;;;;;;;;;32.70;14.40;;;;;;5096062;28;20281;-91
2022/03/26 13:23:34;;;;;;;;;;;33.00;14.10;;;;;;5096385;28;19908;-92
2022/03/26 13:26:02;;;;;;;;;;;32.70;15.50;;;;;;5096399;28;20366;-91
2022/03/26 13:28:36;;;;;;;;;;;32.70;16.10;;;;;;5095929;28;20026;-91
2022/03/26 13:31:19;;;;;;;;;;;32.80;15.90;;;;;;5095868;28;20017;-91
2022/03/26 13:33:44;;;;;;;;;;;33.50;15.60;;;;;;5095871;28;19916;-91
2022/03/26 13:36:10;;;;;;;;;;;33.50;16.20;;;;;;5095860;28;19909;-91
2022/03/26 13:38:36;;;;;;;;;;;32.80;16.30;;;;;;5095808;28;19973;-91
2022/03/26 13:41:14;;;;;;;;;;;33.40;15.90;;;;;;5095782;28;19946;-91
2022/03/26 13:43:40;;;;;;;;;;;33.50;15.70;;;;;;5095124;28;19947;-91
2022/03/26 13:46:06;;;;;;;;;;;34.00;15.70;;;;;;5095746;28;19954;-91
2022/03/26 13:48:44;;;;;;;;;;;33.90;16.60;;;;;;5091053;28;19957;-91
2022/03/26 13:51:10;;;;;;;;;;;33.20;15.70;;;;;;5089532;28;19920;-91
2022/03/26 13:53:39;;;;;;;;;;;33.40;16.80;;;;;;5095192;28;19912;-91
2022/03/26 13:56:04;;;;;;;;;;;33.70;15.20;;;;;;5092910;28;20018;-92
2022/03/26 13:58:33;;;;;;;;;;;34.00;16.20;;;;;;5090629;28;20014;-91
2022/03/26 14:00:59;;;;;;;;;;;34.00;15.90;;;;;;5093456;28;19969;-92
2022/03/26 14:03:24;;;;;;;;;;;34.40;16.10;;;;;;5095336;28;20369;-91
2022/03/26 14:05:50;;;;;;;;;;;34.80;14.60;;;;;;5095231;28;20468;-91
2022/03/26 14:08:16;;;;;;;;;;;33.90;15.40;;;;;;5095057;28;19934;-91
2022/03/26 14:10:42;;;;;;;;;;;33.50;16.40;;;;;;5095217;28;19951;-91
2022/03/26 14:13:15;;;;;;;;;;;33.60;15.90;;;;;;5081676;28;19916;-91
2022/03/26 14:15:42;;;;;;;;;;;33.90;16.30;;;;;;5076019;28;19922;-91
2022/03/26 14:18:08;;;;;;;;;;;34.80;14.20;;;;;;5081476;28;20041;-92
2022/03/26 14:20:34;;;;;;;;;;;34.70;14.70;;;;;;5090711;28;19949;-91
2022/03/26 14:23:00;;;;;;;;;;;34.60;14.90;;;;;;5084001;28;19912;-91
2022/03/26 14:25:29;;;;;;;;;;;35.00;15.50;;;;;;5089569;28;19913;-91
2022/03/26 14:27:55;;;;;;;;;;;34.70;14.70;;;;;;5094242;28;19923;-92
2022/03/26 14:30:21;;;;;;;;;;;34.00;14.30;;;;;;5096859;28;20275;-92
2022/03/26 14:32:47;;;;;;;;;;;34.20;14.60;;;;;;5088909;28;19919;-92
2022/03/26 14:35:12;;;;;;;;;;;34.70;13.50;;;;;;5089035;28;19921;-91
2022/03/26 14:37:39;;;;;;;;;;;34.70;13.60;;;;;;5090678;28;20010;-92
2022/03/26 14:40:05;;;;;;;;;;;34.20;14.70;;;;;;5078959;28;19978;-91
2022/03/26 14:42:31;;;;;;;;;;;33.70;15.50;;;;;;5092422;28;19911;-91
2022/03/26 14:44:56;;;;;;;;;;;33.10;15.30;;;;;;5091512;28;20354;-91
2022/03/26 14:47:22;;;;;;;;;;;32.40;16.90;;;;;;5090014;28;19923;-91
2022/03/26 14:49:48;;;;;;;;;;;32.00;16.90;;;;;;5089582;28;19999;-92
2022/03/26 14:52:13;;;;;;;;;;;31.80;17.40;;;;;;5081464;28;19916;-91
2022/03/26 14:54:39;;;;;;;;;;;31.40;17.60;;;;;;5084116;28;19958;-91
2022/03/26 14:57:04;;;;;;;;;;;30.80;16.70;;;;;;5077206;28;20316;-91
2022/03/26 14:59:31;;;;;;;;;;;31.40;15.90;;;;;;5082916;28;20636;-91
2022/03/26 15:01:58;;;;;;;;;;;31.90;16.80;;;;;;5093534;28;20433;-91
2022/03/26 15:04:23;;;;;;;;;;;31.10;17.90;;;;;;5081763;28;20381;-91
2022/03/26 15:06:49;;;;;;;;;;;31.20;17.90;;;;;;5082011;28;19919;-91
2022/03/26 15:09:14;;;;;;;;;;;31.90;17.90;;;;;;5087634;28;19981;-91
2022/03/26 15:11:40;;;;;;;;;;;31.80;18.40;;;;;;5092483;28;19912;-91
2022/03/26 15:14:06;;;;;;;;;;;31.10;19.00;;;;;;5081684;28;19931;-91
2022/03/26 15:16:31;;;;;;;;;;;31.60;18.10;;;;;;5089635;28;20410;-91
2022/03/26 15:18:57;;;;;;;;;;;31.30;18.20;;;;;;5090303;28;20006;-91
2022/03/26 15:21:23;;;;;;;;;;;30.80;17.90;;;;;;5087880;28;20300;-91
2022/03/26 15:23:48;;;;;;;;;;;30.70;17.70;;;;;;5087274;28;19912;-90
2022/03/26 15:26:14;;;;;;;;;;;30.40;19.00;;;;;;5086372;28;20011;-91
2022/03/26 15:28:39;;;;;;;;;;;30.70;18.90;;;;;;5092860;28;20001;-91
2022/03/26 15:31:05;;;;;;;;;;;31.00;18.40;;;;;;5084274;28;19912;-91
2022/03/26 15:33:31;;;;;;;;;;;31.40;18.40;;;;;;5083710;28;19916;-91
2022/03/26 15:35:57;;;;;;;;;;;30.90;18.10;;;;;;5081368;28;19912;-91
2022/03/26 15:38:22;;;;;;;;;;;30.50;18.50;;;;;;5090630;28;19955;-91
2022/03/26 15:40:48;;;;;;;;;;;30.80;18.60;;;;;;5085631;28;20007;-91
2022/03/26 15:43:13;;;;;;;;;;;30.60;18.30;;;;;;5087220;28;20389;-91
2022/03/26 15:45:39;;;;;;;;;;;30.20;18.80;;;;;;5083376;28;19938;-91
2022/03/26 15:48:04;;;;;;;;;;;30.60;18.90;;;;;;5082730;28;19916;-91
2022/03/26 15:50:31;;;;;;;;;;;30.90;17.90;;;;;;5089463;28;19916;-91
2022/03/26 15:52:56;;;;;;;;;;;31.20;17.60;;;;;;5093046;28;19912;-91
2022/03/26 15:55:22;;;;;;;;;;;31.00;17.30;;;;;;5092465;28;19973;-92
2022/03/26 15:57:47;;;;;;;;;;;30.70;17.90;;;;;;5089608;28;19919;-91
2022/03/26 16:00:13;;;;;;;;;;;30.80;17.90;;;;;;5089221;28;19958;-91
2022/03/26 16:02:39;;;;;;;;;;;31.20;17.40;;;;;;5089508;28;19916;-91
2022/03/26 16:05:04;;;;;;;;;;;30.40;18.10;;;;;;5092706;28;20421;-91
2022/03/26 16:07:30;;;;;;;;;;;29.30;18.70;;;;;;5079550;28;19935;-91
2022/03/26 16:09:57;;;;;;;;;;;29.00;19.40;;;;;;5079656;28;19919;-91
2022/03/26 16:12:23;;;;;;;;;;;28.80;19.70;;;;;;5075032;28;20038;-91
2022/03/26 16:14:48;;;;;;;;;;;28.70;19.80;;;;;;5075212;28;20007;-90
2022/03/26 16:17:14;;;;;;;;;;;28.70;20.00;;;;;;5079523;28;19918;-91
2022/03/26 16:19:39;;;;;;;;;;;28.50;19.90;;;;;;5090077;28;20500;-91
2022/03/26 16:22:05;;;;;;;;;;;27.90;20.60;;;;;;5081873;28;20025;-91
2022/03/26 16:24:31;;;;;;;;;;;27.50;20.80;;;;;;5080816;28;19912;-91
2022/03/26 16:26:56;;;;;;;;;;;26.80;22.30;;;;;;5074963;28;19913;-91
2022/03/26 16:29:22;;;;;;;;;;;26.50;22.50;;;;;;5090509;28;19912;-91
2022/03/26 16:31:47;;;;;;;;;;;26.00;22.70;;;;;;5077262;28;20008;-91
2022/03/26 16:34:13;;;;;;;;;;;26.00;23.20;;;;;;5077287;28;19922;-91
2022/03/26 16:36:38;;;;;;;;;;;25.80;22.80;;;;;;5080965;28;20006;-91
2022/03/26 16:39:04;;;;;;;;;;;25.70;23.20;;;;;;5085104;28;19912;-91
2022/03/26 16:41:29;;;;;;;;;;;25.70;22.60;;;;;;5090015;28;19962;-90
2022/03/26 16:43:55;;;;;;;;;;;25.20;22.60;;;;;;5092490;28;19916;-90
2022/03/26 16:46:20;;;;;;;;;;;25.20;22.70;;;;;;5085630;28;19912;-90
2022/03/26 16:48:46;;;;;;;;;;;25.00;23.50;;;;;;5075112;28;19916;-90
2022/03/26 16:51:12;;;;;;;;;;;24.90;23.20;;;;;;5081731;28;20357;-91
2022/03/26 16:53:40;;;;;;;;;;;24.70;23.00;;;;;;5080906;28;20014;-90
2022/03/26 16:56:06;;;;;;;;;;;24.40;23.00;;;;;;5092585;28;20006;-91
2022/03/26 16:58:32;;;;;;;;;;;24.20;23.10;;;;;;5089789;28;19912;-90
2022/03/26 17:00:58;;;;;;;;;;;24.10;23.60;;;;;;5089223;28;19921;-90
2022/03/26 17:03:23;;;;;;;;;;;23.80;24.50;;;;;;5091492;28;19916;-91
2022/03/26 17:05:49;;;;;;;;;;;23.60;23.70;;;;;;5087168;28;19944;-90
2022/03/26 17:08:15;;;;;;;;;;;23.60;23.00;;;;;;5077875;28;19935;-90
2022/03/26 17:10:42;;;;;;;;;;;23.40;23.30;;;;;;5078538;28;20022;-90
2022/03/26 17:13:07;;;;;;;;;;;23.20;23.20;;;;;;5082666;28;19912;-90
2022/03/26 17:15:33;;;;;;;;;;;22.80;23.50;;;;;;5091397;28;19923;-90
2022/03/26 17:17:59;;;;;;;;;;;22.50;24.30;;;;;;5093642;28;20014;-91
2022/03/26 17:20:25;;;;;;;;;;;22.00;26.20;;;;;;5089859;28;19920;-91
2022/03/26 17:22:51;;;;;;;;;;;21.60;27.10;;;;;;5075886;28;19912;-90
2022/03/26 17:25:17;;;;;;;;;;;21.20;27.30;;;;;;5086396;28;19966;-91
2022/03/26 17:27:42;;;;;;;;;;;20.80;29.70;;;;;;5091257;28;19916;-90
2022/03/26 17:30:08;;;;;;;;;;;20.60;29.60;;;;;;5094107;28;19920;-90
2022/03/26 17:32:33;;;;;;;;;;;20.20;30.10;;;;;;5093852;28;19989;-90
2022/03/26 17:35:00;;;;;;;;;;;19.90;30.60;;;;;;5093008;28;19926;-91
2022/03/26 17:37:26;;;;;;;;;;;19.60;30.40;;;;;;5094340;28;19913;-90
2022/03/26 17:39:51;;;;;;;;;;;19.30;32.20;;;;;;5092822;28;19919;-90
2022/03/26 17:42:17;;;;;;;;;;;19.10;31.00;;;;;;5091593;28;19932;-91
2022/03/26 17:44:43;;;;;;;;;;;18.90;30.60;;;;;;5089041;28;20255;-90
2022/03/26 17:47:11;;;;;;;;;;;18.80;30.90;;;;;;5091187;28;19955;-90
2022/03/26 17:49:37;;;;;;;;;;;18.60;30.20;;;;;;5094300;28;20374;-90
2022/03/26 17:52:02;;;;;;;;;;;18.40;30.00;;;;;;5095568;28;20331;-90
2022/03/26 17:54:28;;;;;;;;;;;18.30;29.90;;;;;;5095503;28;19908;-90
2022/03/26 17:56:53;;;;;;;;;;;18.20;30.10;;;;;;5095478;28;19912;-90
2022/03/26 17:59:19;;;;;;;;;;;18.00;31.20;;;;;;5095433;28;19908;-90
2022/03/26 18:01:45;;;;;;;;;;;17.90;31.70;;;;;;5095435;28;20193;-90
2022/03/26 18:04:11;;;;;;;;;;;17.70;32.20;;;;;;5095340;28;19908;-90
2022/03/26 18:06:37;;;;;;;;;;;17.50;32.50;;;;;;5095374;28;19923;-90
2022/03/26 18:09:02;;;;;;;;;;;17.30;32.80;;;;;;5085559;28;19924;-90
2022/03/26 18:11:28;;;;;;;;;;;17.20;32.90;;;;;;5075003;28;19908;-90
2022/03/26 18:13:55;;;;;;;;;;;17.00;32.90;;;;;;5074957;28;20366;-90
2022/03/26 18:16:20;;;;;;;;;;;16.90;33.80;;;;;;5075163;28;19909;-90
2022/03/26 18:18:46;;;;;;;;;;;16.70;36.10;;;;;;5075162;28;19908;-91
2022/03/26 18:21:12;;;;;;;;;;;16.50;39.40;;;;;;5074850;28;20409;-90
2022/03/26 18:23:37;;;;;;;;;;;16.30;39.40;;;;;;5074736;28;19950;-90
2022/03/26 18:26:03;;;;;;;;;;;16.20;36.60;;;;;;5074731;28;19916;-90
2022/03/26 18:28:29;;;;;;;;;;;16.10;35.90;;;;;;5074616;28;19919;-90
2022/03/26 18:30:54;;;;;;;;;;;15.90;36.00;;;;;;5074524;28;19908;-90
2022/03/26 18:33:20;;;;;;;;;;;16.00;37.70;;;;;;5074559;28;19908;-90
2022/03/26 18:35:45;;;;;;;;;;;15.80;38.20;;;;;;5074515;28;19909;-90
2022/03/26 18:38:11;;;;;;;;;;;15.80;38.20;;;;;;5074687;28;19909;-90
2022/03/26 18:40:37;;;;;;;;;;;15.80;38.40;;;;;;5094348;28;19916;-90
2022/03/26 18:43:03;;;;;;;;;;;15.70;36.20;;;;;;5094641;28;19914;-90
2022/03/26 18:45:29;;;;;;;;;;;15.60;37.30;;;;;;5094578;28;19908;-90
2022/03/26 18:47:54;;;;;;;;;;;15.50;37.30;;;;;;5094690;28;19959;-89
2022/03/26 18:50:20;;;;;;;;;;;15.40;37.40;;;;;;5094481;28;20365;-90
2022/03/26 18:52:45;;;;;;;;;;;15.30;37.40;;;;;;5094414;28;20415;-90
2022/03/26 18:55:11;;;;;;;;;;;15.30;39.50;;;;;;5094633;28;19983;-90
2022/03/26 18:57:36;;;;;;;;;;;15.10;38.00;;;;;;5094325;28;19909;-90
2022/03/26 19:00:03;;;;;;;;;;;15.10;39.80;;;;;;5094325;28;19915;-89
2022/03/26 19:02:29;;;;;;;;;;;15.00;41.60;;;;;;5094165;28;19908;-90
2022/03/26 19:04:54;;;;;;;;;;;14.90;41.00;;;;;;5093933;28;19953;-89
2022/03/26 19:07:20;;;;;;;;;;;14.80;44.40;;;;;;5094042;28;20282;-90
2022/03/26 19:09:45;;;;;;;;;;;14.80;43.30;;;;;;5093257;28;20362;-90
2022/03/26 19:12:11;;;;;;;;;;;14.60;45.20;;;;;;5094028;28;20362;-90
2022/03/26 19:14:37;;;;;;;;;;;14.40;46.60;;;;;;5093996;28;19995;-90
2022/03/26 19:17:03;;;;;;;;;;;14.30;43.30;;;;;;5093435;28;20378;-90
2022/03/26 19:19:29;;;;;;;;;;;14.30;42.90;;;;;;5093889;28;19958;-90
2022/03/26 19:21:55;;;;;;;;;;;14.20;43.10;;;;;;5093847;28;19912;-90
2022/03/26 19:24:20;;;;;;;;;;;14.10;41.90;;;;;;5093860;28;19915;-90
2022/03/26 19:26:46;;;;;;;;;;;14.00;40.60;;;;;;5093833;28;19908;-89
2022/03/26 19:31:55;;;;;;;;;;;13.90;43.10;;;;;;5093581;28;19915;-89
2022/03/26 19:34:22;;;;;;;;;;;13.40;47.00;;;;;;5093669;28;19908;-89
2022/03/26 19:36:48;;;;;;;;;;;13.20;47.30;;;;;;5093638;28;19908;-89
2022/03/26 19:39:13;;;;;;;;;;;13.00;46.10;;;;;;5092895;28;19912;-90
2022/03/26 19:41:39;;;;;;;;;;;12.90;46.10;;;;;;5093594;28;20404;-90
2022/03/26 19:44:04;;;;;;;;;;;12.80;45.00;;;;;;5093565;28;19915;-90
2022/03/26 19:46:32;;;;;;;;;;;12.80;44.90;;;;;;5092220;28;19916;-90
2022/03/26 19:48:57;;;;;;;;;;;12.80;45.30;;;;;;5093606;28;19935;-89
2022/03/26 19:51:23;;;;;;;;;;;12.80;46.90;;;;;;5093364;28;20366;-89
2022/03/26 19:53:48;;;;;;;;;;;12.70;47.60;;;;;;5093399;28;19908;-89
2022/03/26 19:56:15;;;;;;;;;;;12.60;48.00;;;;;;5093376;28;19912;-89
2022/03/26 19:58:41;;;;;;;;;;;12.60;47.70;;;;;;5093558;28;19908;-89
2022/03/26 20:01:08;;;;;;;;;;;12.50;48.20;;;;;;5093310;28;20274;-89
2022/03/26 20:03:35;;;;;;;;;;;12.50;50.50;;;;;;5093495;28;19908;-90
2022/03/26 20:06:01;;;;;;;;;;;12.40;51.00;;;;;;5093257;28;19908;-89
2022/03/26 20:08:27;;;;;;;;;;;12.40;51.50;;;;;;5096798;22;19925;-89
2022/03/26 20:10:52;;;;;;;;;;;12.30;51.90;;;;;;5073311;28;19927;-90
2022/03/26 20:13:18;;;;;;;;;;;12.20;53.60;;;;;;5072983;28;20472;-89
2022/03/26 20:15:43;;;;;;;;;;;12.00;53.90;;;;;;5078303;28;20429;-89
2022/03/26 20:20:54;;;;;;;;;;;11.80;55.10;;;;;;5093160;28;20282;-89
2022/03/26 20:23:20;;;;;;;;;;;11.70;56.90;;;;;;5093122;28;19916;-90
2022/03/26 20:25:46;;;;;;;;;;;11.60;56.90;;;;;;5093103;28;20277;-89
2022/03/26 20:28:11;;;;;;;;;;;11.50;58.00;;;;;;5093026;28;19999;-89
2022/03/26 20:30:38;;;;;;;;;;;11.50;57.20;;;;;;5096527;28;19908;-89
2022/03/26 20:33:04;;;;;;;;;;;11.50;58.40;;;;;;5097205;28;19908;-89
2022/03/26 20:35:31;;;;;;;;;;;11.50;57.30;;;;;;5097113;28;19916;-90
2022/03/26 20:37:56;;;;;;;;;;;11.40;57.10;;;;;;5096958;28;19908;-89
2022/03/26 20:40:22;;;;;;;;;;;11.40;57.00;;;;;;5097015;28;20046;-90
2022/03/26 20:42:48;;;;;;;;;;;11.40;56.80;;;;;;5096961;28;19915;-89
2022/03/26 20:45:16;;;;;;;;;;;11.30;57.60;;;;;;5096916;28;19911;-89
2022/03/26 20:47:42;;;;;;;;;;;11.10;57.10;;;;;;5096834;28;19918;-90
2022/03/26 20:50:08;;;;;;;;;;;10.90;55.30;;;;;;5095517;28;19908;-89
2022/03/26 20:52:34;;;;;;;;;;;11.00;55.90;;;;;;5096773;28;19919;-89
2022/03/26 20:55:00;;;;;;;;;;;11.10;56.90;;;;;;5096702;28;20320;-89
2022/03/26 20:57:26;;;;;;;;;;;11.20;58.60;;;;;;5096693;28;19909;-89
2022/03/26 20:59:52;;;;;;;;;;;11.10;57.90;;;;;;5096595;28;19908;-89
2022/03/26 21:02:19;;;;;;;;;;;11.00;56.90;;;;;;5096574;28;20445;-89
2022/03/26 21:04:45;;;;;;;;;;;11.00;57.90;;;;;;5096538;28;19912;-89
2022/03/26 21:07:11;;;;;;;;;;;11.00;58.30;;;;;;5096315;28;20270;-89
2022/03/26 21:09:41;;;;;;;;;;;11.10;58.40;;;;;;5096158;28;19913;-90
2022/03/26 21:12:07;;;;;;;;;;;11.10;57.30;;;;;;5096416;28;19915;-89
2022/03/26 21:14:33;;;;;;;;;;;11.10;57.70;;;;;;5096636;28;19908;-89
2022/03/26 21:16:58;;;;;;;;;;;11.10;58.10;;;;;;5096369;28;19908;-89
2022/03/26 21:19:24;;;;;;;;;;;11.20;57.40;;;;;;5096295;28;20010;-89
2022/03/26 21:21:50;;;;;;;;;;;11.20;57.20;;;;;;5096223;28;20362;-90
2022/03/26 21:24:16;;;;;;;;;;;11.10;56.60;;;;;;5096255;28;19981;-89
2022/03/26 21:26:42;;;;;;;;;;;10.90;56.50;;;;;;5096219;28;20385;-89
2022/03/26 21:29:07;;;;;;;;;;;10.80;55.00;;;;;;5095789;28;20365;-89
2022/03/26 21:31:33;;;;;;;;;;;10.70;54.80;;;;;;5096245;28;19908;-89
2022/03/26 21:33:58;;;;;;;;;;;10.60;55.80;;;;;;5095996;28;19908;-89
2022/03/26 21:36:24;;;;;;;;;;;10.40;56.10;;;;;;5095978;28;19912;-89
2022/03/26 21:38:49;;;;;;;;;;;10.40;56.80;;;;;;5095938;28;19940;-89
2022/03/26 21:41:15;;;;;;;;;;;10.20;57.30;;;;;;5095600;28;19908;-89
2022/03/26 21:43:42;;;;;;;;;;;10.10;57.30;;;;;;5095779;28;19995;-90
2022/03/26 21:46:11;;;;;;;;;;;10.10;58.10;;;;;;5095742;28;19908;-89
2022/03/26 21:48:36;;;;;;;;;;;10.10;58.80;;;;;;5095855;28;19955;-90
2022/03/26 21:51:02;;;;;;;;;;;10.00;58.30;;;;;;5095693;28;19908;-89
2022/03/26 21:53:28;;;;;;;;;;;10.10;57.80;;;;;;5095574;28;20362;-89
2022/03/26 21:55:53;;;;;;;;;;;10.00;58.10;;;;;;5095533;28;20037;-89
2022/03/26 21:58:19;;;;;;;;;;;10.00;58.00;;;;;;5095133;28;19912;-89
2022/03/26 22:00:46;;;;;;;;;;;9.90;58.10;;;;;;5095451;28;20392;-89
2022/03/26 22:03:12;;;;;;;;;;;9.90;60.10;;;;;;5095482;28;19958;-89
2022/03/26 22:05:39;;;;;;;;;;;9.90;60.30;;;;;;5094192;28;20312;-90
2022/03/26 22:08:05;;;;;;;;;;;9.70;60.20;;;;;;5095182;28;19930;-89
2022/03/26 22:10:31;;;;;;;;;;;9.60;60.20;;;;;;5095204;28;20281;-89
2022/03/26 22:12:56;;;;;;;;;;;9.40;60.50;;;;;;5095258;28;20003;-89
2022/03/26 22:15:22;;;;;;;;;;;9.30;60.70;;;;;;5095175;28;20011;-89
2022/03/26 22:17:48;;;;;;;;;;;9.00;62.00;;;;;;5095193;28;19908;-88
2022/03/26 22:20:13;;;;;;;;;;;8.70;63.90;;;;;;5095391;28;19908;-89
2022/03/26 22:22:39;;;;;;;;;;;8.60;69.00;;;;;;5095019;28;19908;-88
2022/03/26 22:25:06;;;;;;;;;;;8.50;71.40;;;;;;5094994;28;20380;-89
2022/03/26 22:27:32;;;;;;;;;;;8.40;75.10;;;;;;5094893;28;19916;-89
2022/03/26 22:29:58;;;;;;;;;;;8.40;77.00;;;;;;5093482;28;20281;-89
2022/03/26 22:32:24;;;;;;;;;;;8.40;76.80;;;;;;5094830;28;19912;-89
2022/03/26 22:34:49;;;;;;;;;;;8.50;75.90;;;;;;5094817;28;19908;-89